createdAt,value
2023-01-13T00:03:33.569Z,99226.88
2023-01-13T00:07:35.388Z,99221.06
2023-01-13T00:11:37.144Z,99213.38
2023-01-13T00:15:38.849Z,99212.84
2023-01-13T00:19:40.541Z,99201.53
2023-01-13T00:23:43.062Z,99200.19
2023-01-13T00:27:44.790Z,99202.16
2023-01-13T00:31:46.528Z,99204.09
2023-01-13T00:36:02.173Z,99206.03
2023-01-13T00:40:05.009Z,99191.47
2023-01-13T00:44:06.692Z,99182.88
2023-01-13T00:48:08.571Z,99182.66
2023-01-13T00:52:11.030Z,99170.50
2023-01-13T00:56:27.329Z,99172.47
2023-01-13T01:00:36.289Z,99161.41
2023-01-13T01:04:38.194Z,99162.56
2023-01-13T01:08:40.618Z,99167.78
2023-01-13T01:12:42.320Z,99168.34
2023-01-13T01:16:44.759Z,99151.28
2023-01-13T01:20:46.449Z,99155.19
2023-01-13T01:24:48.243Z,99145.22
2023-01-13T01:28:50.405Z,99146.63
2023-01-13T01:32:52.168Z,99157.66
2023-01-13T01:36:53.873Z,99153.50
2023-01-13T01:40:56.114Z,99151.59
2023-01-13T01:45:24.897Z,99149.66
2023-01-13T01:49:32.669Z,99141.97
2023-01-13T01:53:34.420Z,99137.53
2023-01-13T01:57:39.037Z,99130.94
2023-01-13T02:01:42.534Z,99128.47
2023-01-13T02:05:44.426Z,99124.34
2023-01-13T02:09:46.386Z,99120.19
2023-01-13T02:13:48.214Z,99117.69
2023-01-13T02:18:38.129Z,99108.88
2023-01-13T02:23:06.489Z,99103.66
2023-01-13T02:27:20.276Z,99100.06
2023-01-13T02:31:41.445Z,99098.97
2023-01-13T02:35:59.834Z,99101.97
2023-01-13T02:40:13.382Z,99115.50
2023-01-13T02:44:20.812Z,99094.53
2023-01-13T02:48:24.642Z,99098.16
2023-01-13T02:52:33.372Z,99095.66
2023-01-13T02:56:40.289Z,99097.88
2023-01-13T03:00:43.384Z,99090.41
2023-01-13T03:04:56.746Z,99085.19
2023-01-13T03:09:15.184Z,99089.34
2023-01-13T03:13:26.841Z,99079.09
2023-01-13T03:17:54.324Z,99066.41
2023-01-13T03:22:22.379Z,99070.28
2023-01-13T03:26:32.672Z,99066.13
2023-01-13T03:30:48.533Z,99065.31
2023-01-13T03:34:57.154Z,99056.75
2023-01-13T03:39:05.052Z,99052.03
2023-01-13T03:43:33.407Z,99045.41
2023-01-13T03:47:41.356Z,99042.13
2023-01-13T03:51:47.988Z,99045.41
2023-01-13T03:55:58.572Z,99045.41
2023-01-13T04:00:04.178Z,99031.34
2023-01-13T04:04:21.260Z,99008.19
2023-01-13T04:08:27.084Z,99017.25
2023-01-13T04:13:04.073Z,99025.00
2023-01-13T04:17:05.811Z,99017.28
2023-01-13T04:21:08.152Z,99022.50
2023-01-13T04:25:10.258Z,99036.56
2023-01-13T04:29:13.068Z,99036.03
2023-01-13T04:33:17.143Z,99026.91
2023-01-13T04:37:18.878Z,99012.59
2023-01-13T04:41:20.627Z,99012.88
2023-01-13T04:45:22.311Z,99010.09
2023-01-13T04:49:23.869Z,99009.28
2023-01-13T04:53:25.461Z,98999.09
2023-01-13T04:57:27.119Z,99003.50
2023-01-13T05:01:28.824Z,98999.66
2023-01-13T05:05:30.676Z,98998.00
2023-01-13T05:09:32.225Z,98999.09
2023-01-13T05:13:52.457Z,98999.66
2023-01-13T05:17:54.126Z,98987.00
2023-01-13T05:22:14.834Z,98987.84
2023-01-13T05:26:16.395Z,98992.25
2023-01-13T05:30:19.146Z,98976.50
2023-01-13T05:34:25.426Z,98985.28
2023-01-13T05:38:27.170Z,98991.03
2023-01-13T05:42:51.042Z,98989.03
2023-01-13T05:46:52.665Z,98986.75
2023-01-13T05:51:04.517Z,99000.75
2023-01-13T05:55:06.882Z,99011.41
2023-01-13T05:59:08.545Z,99026.22
2023-01-13T06:03:10.767Z,99033.66
2023-01-13T06:07:12.681Z,99084.50
2023-01-13T06:11:14.283Z,99109.00
2023-01-13T06:15:15.854Z,99123.69
2023-01-13T06:19:17.646Z,99128.28
2023-01-13T06:23:19.265Z,99120.16
2023-01-13T06:27:22.023Z,99142.00
2023-01-13T06:31:24.762Z,99136.66
2023-01-13T06:35:32.398Z,99131.78
2023-01-13T06:39:36.001Z,99139.41
2023-01-13T06:43:39.024Z,99141.13
2023-01-13T06:47:42.141Z,99136.56
2023-01-13T06:51:45.153Z,99154.88
2023-01-13T06:55:50.552Z,99144.78
2023-01-13T06:59:53.580Z,99127.16
2023-01-13T07:03:55.139Z,99126.34
2023-01-13T07:07:59.212Z,99152.94
2023-01-13T07:12:00.816Z,99146.88
2023-01-13T07:16:08.157Z,99123.66
2023-01-13T07:20:11.861Z,99109.28
2023-01-13T07:24:17.999Z,99121.94
2023-01-13T07:28:20.438Z,99125.75
2023-01-13T07:32:22.446Z,99137.56
2023-01-13T07:36:23.983Z,99147.84
2023-01-13T07:40:26.131Z,99149.19
2023-01-13T07:44:28.527Z,99141.22
2023-01-13T07:48:34.491Z,99144.69
2023-01-13T07:52:37.343Z,99146.06
2023-01-13T07:56:38.780Z,99145.56
2023-01-13T08:00:40.448Z,99170.50
2023-01-13T08:04:45.447Z,99171.81
2023-01-13T08:08:47.157Z,99178.91
2023-01-13T08:13:11.218Z,99191.22
2023-01-13T08:17:13.169Z,99188.88
2023-01-13T08:21:16.121Z,99201.25
2023-01-13T08:25:18.021Z,99203.47
2023-01-13T08:29:19.712Z,99223.88
2023-01-13T08:33:23.602Z,99231.72
2023-01-13T08:37:28.573Z,99244.19
2023-01-13T08:41:50.388Z,99245.09
2023-01-13T08:46:00.592Z,99252.66
2023-01-13T08:50:06.242Z,99248.72
2023-01-13T08:54:08.560Z,99259.53
2023-01-13T08:58:15.559Z,99260.84
2023-01-13T09:02:23.403Z,99261.03
2023-01-13T09:06:25.312Z,99264.34
2023-01-13T09:10:34.117Z,99270.19
2023-01-13T09:14:38.011Z,99264.44
2023-01-13T09:18:41.727Z,99270.63
2023-01-13T09:22:44.324Z,99274.00
2023-01-13T09:26:46.279Z,99267.59
2023-01-13T09:30:48.071Z,99286.03
2023-01-13T09:35:02.333Z,99282.34
2023-01-13T09:39:04.398Z,99290.09
2023-01-13T09:43:39.100Z,99293.22
2023-01-13T09:47:48.635Z,99298.78
2023-01-13T09:52:10.556Z,99313.44
2023-01-13T09:56:13.304Z,99318.69
2023-01-13T10:00:28.901Z,99318.50
2023-01-13T10:04:30.745Z,99318.09
2023-01-13T10:08:39.030Z,99320.72
2023-01-13T10:12:59.894Z,99319.50
2023-01-13T10:17:04.382Z,99325.75
2023-01-13T10:21:26.937Z,99298.38
2023-01-13T10:25:42.229Z,99302.91
2023-01-13T10:29:43.883Z,99301.38
2023-01-13T10:33:47.065Z,99313.19
2023-01-13T10:37:57.523Z,99311.47
2023-01-13T10:42:04.232Z,99306.72
2023-01-13T10:46:10.994Z,99301.41
2023-01-13T10:50:14.411Z,99303.84
2023-01-13T10:54:24.116Z,99305.56
2023-01-13T10:58:27.812Z,99294.19
2023-01-13T11:02:33.121Z,99286.25
2023-01-13T11:06:36.077Z,99287.66
2023-01-13T11:10:47.033Z,99285.66
2023-01-13T11:14:50.923Z,99285.94
2023-01-13T11:19:13.013Z,99294.03
2023-01-13T11:23:22.861Z,99306.22
2023-01-13T11:27:43.563Z,99310.00
2023-01-13T11:31:58.845Z,99307.97
2023-01-13T11:36:21.400Z,99307.97
2023-01-13T11:40:35.050Z,99315.06
2023-01-13T11:44:50.054Z,99317.13
2023-01-13T11:48:56.266Z,99322.06
2023-01-13T11:53:17.048Z,99314.78
2023-01-13T11:57:39.059Z,99311.56
2023-01-13T12:02:11.101Z,99301.94
2023-01-13T12:06:39.081Z,99321.41
2023-01-13T12:11:07.058Z,99312.13
2023-01-13T12:15:21.123Z,99319.50
2023-01-13T12:19:29.822Z,99316.75
2023-01-13T12:23:46.548Z,99330.41
2023-01-13T12:27:56.216Z,99328.78
2023-01-13T12:32:03.123Z,99342.78
2023-01-13T12:36:25.066Z,99327.09
2023-01-13T12:41:09.909Z,99309.09
2023-01-13T12:45:11.471Z,99314.13
2023-01-13T12:49:26.067Z,99336.19
2023-01-13T12:53:36.257Z,99335.13
2023-01-13T12:57:39.628Z,99326.28
2023-01-13T13:01:44.308Z,99321.88
2023-01-13T13:06:08.037Z,99328.47
2023-01-13T13:10:19.023Z,99337.88
2023-01-13T13:14:37.003Z,99331.50
2023-01-13T13:18:38.766Z,99327.34
2023-01-13T13:22:45.065Z,99316.47
2023-01-13T13:26:46.943Z,99326.72
2023-01-13T13:31:11.895Z,99310.56
2023-01-13T13:35:21.818Z,99310.84
2023-01-13T13:39:47.039Z,99318.06
2023-01-13T13:44:07.600Z,99333.47
2023-01-13T13:48:25.048Z,99346.38
2023-01-13T13:52:40.022Z,99351.69
2023-01-13T13:56:45.624Z,99369.66
2023-01-13T14:00:49.311Z,99387.91
2023-01-13T14:04:50.911Z,99393.19
2023-01-13T14:08:53.870Z,99411.28
2023-01-13T14:12:56.983Z,99409.50
2023-01-13T14:16:58.813Z,99413.44
2023-01-13T14:21:18.842Z,99425.09
2023-01-13T14:25:46.859Z,99426.19
2023-01-13T14:30:00.796Z,99432.16
2023-01-13T14:34:31.084Z,99441.00
2023-01-13T14:38:27.355Z,99441.41
2023-01-13T14:42:29.822Z,99459.59
2023-01-13T14:46:43.176Z,99460.28
2023-01-13T14:50:46.783Z,99456.03
2023-01-13T14:54:54.083Z,99461.81
2023-01-13T14:58:55.953Z,99461.06
2023-01-13T15:02:58.203Z,99476.00
2023-01-13T15:07:01.951Z,99476.81
2023-01-13T15:11:18.904Z,99509.69
2023-01-13T15:15:25.942Z,99504.63
2023-01-13T15:19:27.468Z,99501.34
2023-01-13T15:23:29.935Z,99503.28
2023-01-13T15:27:31.499Z,99505.63
2023-01-13T15:31:33.081Z,99517.75
2023-01-13T15:35:37.972Z,99517.63
2023-01-13T15:39:39.764Z,99531.88
2023-01-13T15:44:01.948Z,99533.53
2023-01-13T15:48:03.936Z,99545.53
2023-01-13T15:52:20.022Z,99549.88
2023-01-13T15:56:26.620Z,99553.13
2023-01-13T16:00:34.165Z,99565.44
2023-01-13T16:04:35.843Z,99573.31
2023-01-13T16:08:38.244Z,99591.41
2023-01-13T16:12:40.278Z,99584.50
2023-01-13T16:16:41.876Z,99590.28
2023-01-13T16:20:44.063Z,99598.31
2023-01-13T16:24:46.037Z,99605.03
2023-01-13T16:28:52.983Z,99607.78
2023-01-13T16:32:57.140Z,99619.09
2023-01-13T16:36:58.696Z,99621.38
2023-01-13T16:41:00.345Z,99623.72
2023-01-13T16:45:08.394Z,99614.38
2023-01-13T16:49:13.071Z,99633.75
2023-01-13T16:53:14.696Z,99633.75
2023-01-13T16:57:17.331Z,99638.97
2023-01-13T17:01:22.274Z,99648.66
2023-01-13T17:05:23.902Z,99644.13
2023-01-13T17:09:27.432Z,99648.59
2023-01-13T17:13:32.264Z,99654.22
2023-01-13T17:17:33.903Z,99657.34
2023-01-13T17:21:35.481Z,99653.31
2023-01-13T17:25:37.336Z,99650.50
2023-01-13T17:29:39.057Z,99676.88
2023-01-13T17:33:40.692Z,99690.00
2023-01-13T17:37:42.359Z,99697.19
2023-01-13T17:41:45.740Z,99699.53
2023-01-13T17:45:48.336Z,99702.66
2023-01-13T17:49:49.857Z,99704.94
2023-01-13T17:53:53.912Z,99714.00
2023-01-13T17:57:55.541Z,99711.13
2023-01-13T18:01:57.331Z,99722.13
2023-01-13T18:06:03.959Z,99728.72
2023-01-13T18:10:06.220Z,99742.94
2023-01-13T18:14:09.494Z,99748.09
2023-01-13T18:18:11.055Z,99752.84
2023-01-13T18:22:35.632Z,99756.19
2023-01-13T18:26:55.760Z,99763.13
2023-01-13T18:30:57.583Z,99777.22
2023-01-13T18:35:09.120Z,99790.22
2023-01-13T18:39:11.622Z,99800.53
2023-01-13T18:43:17.008Z,99797.06
2023-01-13T18:47:19.516Z,99795.63
2023-01-13T18:51:21.082Z,99788.34
2023-01-13T18:55:24.544Z,99794.41
2023-01-13T18:59:28.190Z,99794.88
2023-01-13T19:03:31.218Z,99808.28
2023-01-13T19:07:35.613Z,99807.19
2023-01-13T19:11:37.540Z,99819.97
2023-01-13T19:15:39.135Z,99823.88
2023-01-13T19:19:43.923Z,99835.97
2023-01-13T19:23:45.904Z,99844.19
2023-01-13T19:27:47.479Z,99849.69
2023-01-13T19:31:49.264Z,99854.31
2023-01-13T19:36:07.362Z,99857.47
2023-01-13T19:40:10.409Z,99872.84
2023-01-13T19:44:31.122Z,99876.69
2023-01-13T19:48:32.947Z,99889.13
2023-01-13T19:52:35.168Z,99889.94
2023-01-13T19:56:37.929Z,99895.91
2023-01-13T20:00:47.058Z,99887.41
2023-01-13T20:04:49.090Z,99882.41
2023-01-13T20:08:51.105Z,99888.72
2023-01-13T20:12:52.983Z,99893.16
2023-01-13T20:16:54.807Z,99895.66
2023-01-13T20:20:57.967Z,99897.06
2023-01-13T20:24:59.506Z,99907.44
2023-01-13T20:29:01.097Z,99916.06
2023-01-13T20:33:03.731Z,99922.25
2023-01-13T20:37:05.492Z,99928.81
2023-01-13T20:41:25.976Z,99925.88
2023-01-13T20:45:28.945Z,99926.91
2023-01-13T20:49:31.624Z,99923.75
2023-01-13T20:53:33.201Z,99945.28
2023-01-13T20:57:35.135Z,99948.63
2023-01-13T21:01:37.845Z,99957.53
2023-01-13T21:05:39.588Z,99960.69
2023-01-13T21:09:43.204Z,99950.31
2023-01-13T21:14:04.054Z,99951.38
2023-01-13T21:18:24.578Z,99949.09
2023-01-13T21:22:26.798Z,99957.75
2023-01-13T21:26:28.463Z,99956.28
2023-01-13T21:30:30.122Z,99960.22
2023-01-13T21:34:33.993Z,99968.09
2023-01-13T21:38:36.181Z,99967.00
2023-01-13T21:42:56.562Z,99973.75
2023-01-13T21:47:19.891Z,99984.84
2023-01-13T21:51:21.525Z,99988.66
2023-01-13T21:55:28.609Z,100002.56
2023-01-13T21:59:30.636Z,100000.94
2023-01-13T22:03:52.271Z,100006.28
2023-01-13T22:07:53.864Z,99999.81
2023-01-13T22:11:55.448Z,100002.88
2023-01-13T22:16:04.526Z,100005.59
2023-01-13T22:20:06.576Z,100004.16
2023-01-13T22:24:08.523Z,99991.97
2023-01-13T22:28:14.586Z,99998.75
2023-01-13T22:32:17.246Z,100008.19
2023-01-13T22:36:19.904Z,100012.59
2023-01-13T22:40:21.454Z,100013.06
2023-01-13T22:44:23.258Z,100010.47
2023-01-13T22:48:24.903Z,100015.13
2023-01-13T22:52:28.543Z,100024.81
2023-01-13T22:56:30.231Z,100040.00
2023-01-13T23:00:32.339Z,100033.44
2023-01-13T23:04:34.072Z,100041.97
2023-01-13T23:08:37.913Z,100034.34
2023-01-13T23:12:41.285Z,100040.69
2023-01-13T23:16:42.931Z,100034.56
2023-01-13T23:20:44.507Z,100037.94
2023-01-13T23:24:46.120Z,100037.94
2023-01-13T23:28:47.724Z,100027.78
2023-01-13T23:32:49.263Z,100039.13
2023-01-13T23:36:50.863Z,100037.47
2023-01-13T23:40:52.651Z,100038.09
2023-01-13T23:44:54.190Z,100042.50
2023-01-13T23:48:55.962Z,100040.84
2023-01-13T23:52:57.630Z,100034.06
2023-01-13T23:57:00.329Z,100032.34
